sensor_id;sensor_type;location;lat;lon;timestamp;pressure;altitude;pressure_sealevel;temperature;humidity
36404;BME280;22437;55.646;37.518;2022-08-19T00:00:10;99375.69;;;24.75;36.02
36404;BME280;22437;55.646;37.518;2022-08-19T00:02:42;99376.91;;;24.74;35.64
36404;BME280;22437;55.646;37.518;2022-08-19T00:05:18;99385.16;;;24.78;35.44
36404;BME280;22437;55.646;37.518;2022-08-19T00:07:50;99379.53;;;24.81;35.59
36404;BME280;22437;55.646;37.518;2022-08-19T00:10:20;99387.66;;;24.72;35.76
36404;BME280;22437;55.646;37.518;2022-08-19T00:12:49;99390.16;;;24.67;36.02
36404;BME280;22437;55.646;37.518;2022-08-19T00:15:20;99382.34;;;24.61;36.48
36404;BME280;22437;55.646;37.518;2022-08-19T00:17:50;99381.13;;;24.62;36.29
36404;BME280;22437;55.646;37.518;2022-08-19T00:20:21;99394.25;;;24.62;36.94
36404;BME280;22437;55.646;37.518;2022-08-19T00:22:51;99385.47;;;24.64;37.22
36404;BME280;22437;55.646;37.518;2022-08-19T00:25:22;99395.63;;;24.54;37.14
36404;BME280;22437;55.646;37.518;2022-08-19T00:27:57;99390.53;;;24.49;37.62
36404;BME280;22437;55.646;37.518;2022-08-19T00:30:27;99387.03;;;24.45;37.62
36404;BME280;22437;55.646;37.518;2022-08-19T00:32:56;99389.81;;;24.45;37.69
36404;BME280;22437;55.646;37.518;2022-08-19T00:35:26;99388.22;;;24.43;37.83
36404;BME280;22437;55.646;37.518;2022-08-19T00:37:58;99392.53;;;24.48;37.68
36404;BME280;22437;55.646;37.518;2022-08-19T00:40:28;99391.91;;;24.17;38.57
36404;BME280;22437;55.646;37.518;2022-08-19T00:42:58;99394.44;;;24.31;38.45
36404;BME280;22437;55.646;37.518;2022-08-19T00:45:28;99392.06;;;24.30;38.34
36404;BME280;22437;55.646;37.518;2022-08-19T00:48:03;99388.06;;;24.11;38.50
36404;BME280;22437;55.646;37.518;2022-08-19T00:50:42;99399.97;;;24.11;38.64
36404;BME280;22437;55.646;37.518;2022-08-19T00:53:23;99402.50;;;24.26;38.65
36404;BME280;22437;55.646;37.518;2022-08-19T00:55:56;99413.97;;;24.28;38.21
36404;BME280;22437;55.646;37.518;2022-08-19T00:58:31;99415.50;;;24.09;38.92
36404;BME280;22437;55.646;37.518;2022-08-19T01:01:02;99413.38;;;24.16;38.47
36404;BME280;22437;55.646;37.518;2022-08-19T01:03:32;99409.53;;;24.10;38.27
36404;BME280;22437;55.646;37.518;2022-08-19T01:06:24;99419.88;;;24.10;38.44
36404;BME280;22437;55.646;37.518;2022-08-19T01:08:55;99421.00;;;24.12;38.19
36404;BME280;22437;55.646;37.518;2022-08-19T01:11:25;99423.91;;;24.05;38.16
36404;BME280;22437;55.646;37.518;2022-08-19T01:13:55;99428.69;;;24.04;38.15
36404;BME280;22437;55.646;37.518;2022-08-19T01:16:27;99430.94;;;24.13;38.19
36404;BME280;22437;55.646;37.518;2022-08-19T01:18:57;99435.94;;;23.98;38.13
36404;BME280;22437;55.646;37.518;2022-08-19T01:21:30;99428.69;;;24.04;38.45
36404;BME280;22437;55.646;37.518;2022-08-19T01:24:03;99422.81;;;23.99;38.39
36404;BME280;22437;55.646;37.518;2022-08-19T01:26:39;99426.69;;;23.81;38.79
36404;BME280;22437;55.646;37.518;2022-08-19T01:29:10;99426.41;;;23.72;38.78
36404;BME280;22437;55.646;37.518;2022-08-19T01:31:41;99424.75;;;24.46;37.28
36404;BME280;22437;55.646;37.518;2022-08-19T01:34:10;99424.28;;;23.83;38.74
36404;BME280;22437;55.646;37.518;2022-08-19T01:36:43;99428.56;;;23.88;38.78
36404;BME280;22437;55.646;37.518;2022-08-19T01:39:19;99420.22;;;23.88;38.94
36404;BME280;22437;55.646;37.518;2022-08-19T01:41:50;99414.00;;;23.80;38.89
36404;BME280;22437;55.646;37.518;2022-08-19T01:44:22;99415.00;;;23.67;39.23
36404;BME280;22437;55.646;37.518;2022-08-19T01:46:52;99417.00;;;23.66;39.20
36404;BME280;22437;55.646;37.518;2022-08-19T01:49:24;99415.41;;;23.65;39.23
36404;BME280;22437;55.646;37.518;2022-08-19T01:51:55;99409.06;;;23.64;39.45
36404;BME280;22437;55.646;37.518;2022-08-19T01:54:27;99407.44;;;23.67;39.50
36404;BME280;22437;55.646;37.518;2022-08-19T01:57:00;99413.44;;;23.65;39.39
36404;BME280;22437;55.646;37.518;2022-08-19T01:59:31;99405.63;;;23.57;39.59
36404;BME280;22437;55.646;37.518;2022-08-19T02:02:02;99398.50;;;23.56;39.61
36404;BME280;22437;55.646;37.518;2022-08-19T02:04:33;99403.31;;;23.52;39.92
36404;BME280;22437;55.646;37.518;2022-08-19T02:07:03;99406.97;;;23.49;39.68
36404;BME280;22437;55.646;37.518;2022-08-19T02:09:35;99399.81;;;23.48;39.80
36404;BME280;22437;55.646;37.518;2022-08-19T02:12:06;99404.28;;;23.41;39.55
36404;BME280;22437;55.646;37.518;2022-08-19T02:14:36;99404.44;;;24.05;38.33
36404;BME280;22437;55.646;37.518;2022-08-19T02:17:07;99418.44;;;23.51;39.16
36404;BME280;22437;55.646;37.518;2022-08-19T02:19:38;99438.69;;;23.48;39.22
36404;BME280;22437;55.646;37.518;2022-08-19T02:22:09;99443.06;;;23.49;39.42
36404;BME280;22437;55.646;37.518;2022-08-19T02:24:40;99451.75;;;23.51;39.54
36404;BME280;22437;55.646;37.518;2022-08-19T02:27:09;99444.78;;;23.39;39.41
36404;BME280;22437;55.646;37.518;2022-08-19T02:29:39;99440.25;;;23.21;39.88
36404;BME280;22437;55.646;37.518;2022-08-19T02:32:09;99442.25;;;23.21;39.88
36404;BME280;22437;55.646;37.518;2022-08-19T02:34:38;99432.78;;;23.18;40.16
36404;BME280;22437;55.646;37.518;2022-08-19T02:37:08;99435.69;;;23.08;40.17
36404;BME280;22437;55.646;37.518;2022-08-19T02:40:03;99443.00;;;23.25;40.23
36404;BME280;22437;55.646;37.518;2022-08-19T02:42:39;99441.03;;;23.25;40.00
36404;BME280;22437;55.646;37.518;2022-08-19T02:45:10;99437.09;;;24.01;38.92
36404;BME280;22437;55.646;37.518;2022-08-19T02:47:41;99445.22;;;23.37;39.59
36404;BME280;22437;55.646;37.518;2022-08-19T02:50:12;99443.34;;;23.27;39.91
36404;BME280;22437;55.646;37.518;2022-08-19T02:52:42;99443.00;;;23.25;39.80
36404;BME280;22437;55.646;37.518;2022-08-19T02:55:15;99446.13;;;23.27;40.18
36404;BME280;22437;55.646;37.518;2022-08-19T02:57:44;99444.28;;;23.17;40.16
36404;BME280;22437;55.646;37.518;2022-08-19T03:00:15;99455.31;;;23.24;40.14
36404;BME280;22437;55.646;37.518;2022-08-19T03:02:46;99436.91;;;23.06;40.46
36404;BME280;22437;55.646;37.518;2022-08-19T03:05:16;99444.47;;;23.02;40.70
36404;BME280;22437;55.646;37.518;2022-08-19T03:07:54;99437.28;;;23.09;40.27
36404;BME280;22437;55.646;37.518;2022-08-19T03:10:25;99436.75;;;23.17;40.40
36404;BME280;22437;55.646;37.518;2022-08-19T03:12:55;99430.69;;;23.26;40.14
36404;BME280;22437;55.646;37.518;2022-08-19T03:15:29;99446.72;;;23.15;40.41
36404;BME280;22437;55.646;37.518;2022-08-19T03:17:58;99450.59;;;23.21;40.07
36404;BME280;22437;55.646;37.518;2022-08-19T03:20:29;99455.31;;;23.24;40.19
36404;BME280;22437;55.646;37.518;2022-08-19T03:22:58;99450.13;;;23.26;40.27
36404;BME280;22437;55.646;37.518;2022-08-19T03:25:36;99464.63;;;23.10;40.75
36404;BME280;22437;55.646;37.518;2022-08-19T03:28:06;99455.91;;;23.08;40.55
36404;BME280;22437;55.646;37.518;2022-08-19T03:30:36;99460.88;;;23.24;40.41
36404;BME280;22437;55.646;37.518;2022-08-19T03:33:12;99461.69;;;23.21;40.51
36404;BME280;22437;55.646;37.518;2022-08-19T03:36:06;99457.47;;;23.40;40.38
36404;BME280;22437;55.646;37.518;2022-08-19T03:38:38;99451.69;;;23.27;40.24
36404;BME280;22437;55.646;37.518;2022-08-19T03:41:12;99448.91;;;23.27;40.26
36404;BME280;22437;55.646;37.518;2022-08-19T03:43:43;99448.91;;;23.27;40.27
36404;BME280;22437;55.646;37.518;2022-08-19T03:46:15;99450.56;;;24.02;39.20
36404;BME280;22437;55.646;37.518;2022-08-19T03:48:44;99444.97;;;23.52;39.79
36404;BME280;22437;55.646;37.518;2022-08-19T03:51:18;99450.06;;;23.57;40.46
36404;BME280;22437;55.646;37.518;2022-08-19T03:53:59;99459.59;;;23.56;40.27
36404;BME280;22437;55.646;37.518;2022-08-19T03:56:30;99451.06;;;23.70;40.09
36404;BME280;22437;55.646;37.518;2022-08-19T03:58:59;99447.06;;;23.71;39.62
36404;BME280;22437;55.646;37.518;2022-08-19T04:01:30;99449.91;;;23.68;39.88
36404;BME280;22437;55.646;37.518;2022-08-19T04:04:02;99453.47;;;23.68;39.77
36404;BME280;22437;55.646;37.518;2022-08-19T04:06:37;99462.13;;;23.74;39.64
36404;BME280;22437;55.646;37.518;2022-08-19T04:09:10;99460.28;;;23.91;39.86
36404;BME280;22437;55.646;37.518;2022-08-19T04:11:45;99459.06;;;23.92;40.00
36404;BME280;22437;55.646;37.518;2022-08-19T04:14:17;99458.97;;;23.99;39.04
36404;BME280;22437;55.646;37.518;2022-08-19T04:16:48;99462.22;;;23.94;39.15
36404;BME280;22437;55.646;37.518;2022-08-19T04:19:19;99462.28;;;24.14;39.35
36404;BME280;22437;55.646;37.518;2022-08-19T04:21:50;99458.47;;;24.71;38.65
36404;BME280;22437;55.646;37.518;2022-08-19T04:24:21;99449.69;;;24.29;39.22
36404;BME280;22437;55.646;37.518;2022-08-19T04:26:53;99458.41;;;24.31;39.26
36404;BME280;22437;55.646;37.518;2022-08-19T04:29:25;99458.69;;;24.37;38.95
36404;BME280;22437;55.646;37.518;2022-08-19T04:31:56;99462.56;;;24.43;38.94
36404;BME280;22437;55.646;37.518;2022-08-19T04:34:28;99461.53;;;24.57;38.86
36404;BME280;22437;55.646;37.518;2022-08-19T04:36:58;99461.09;;;24.58;38.20
36404;BME280;22437;55.646;37.518;2022-08-19T04:39:30;99467.75;;;24.65;38.41
36404;BME280;22437;55.646;37.518;2022-08-19T04:42:15;99476.19;;;24.81;38.26
36404;BME280;22437;55.646;37.518;2022-08-19T04:45:03;99482.44;;;24.85;37.93
36404;BME280;22437;55.646;37.518;2022-08-19T04:47:41;99479.66;;;24.85;38.04
36404;BME280;22437;55.646;37.518;2022-08-19T04:50:24;99477.53;;;24.93;37.81
36404;BME280;22437;55.646;37.518;2022-08-19T04:52:54;99477.81;;;24.98;37.75
36404;BME280;22437;55.646;37.518;2022-08-19T04:55:24;99474.44;;;24.87;37.97
36404;BME280;22437;55.646;37.518;2022-08-19T04:57:58;99478.50;;;25.02;37.75
36404;BME280;22437;55.646;37.518;2022-08-19T05:00:29;99476.88;;;25.05;37.77
36404;BME280;22437;55.646;37.518;2022-08-19T05:03:02;99480.81;;;25.08;37.53
36404;BME280;22437;55.646;37.518;2022-08-19T05:05:39;99484.50;;;25.21;37.48
36404;BME280;22437;55.646;37.518;2022-08-19T05:08:13;99484.50;;;25.21;37.47
36404;BME280;22437;55.646;37.518;2022-08-19T05:10:58;99487.44;;;25.14;37.83
36404;BME280;22437;55.646;37.518;2022-08-19T05:13:29;99479.88;;;25.34;37.17
36404;BME280;22437;55.646;37.518;2022-08-19T05:15:59;99481.88;;;25.34;37.18
36404;BME280;22437;55.646;37.518;2022-08-19T05:18:30;99483.88;;;25.13;37.73
36404;BME280;22437;55.646;37.518;2022-08-19T05:21:19;99492.66;;;25.12;37.88
36404;BME280;22437;55.646;37.518;2022-08-19T05:24:09;99486.44;;;25.04;38.11
36404;BME280;22437;55.646;37.518;2022-08-19T05:26:41;99489.59;;;24.86;38.03
36404;BME280;22437;55.646;37.518;2022-08-19T05:29:17;99483.50;;;24.91;38.48
36404;BME280;22437;55.646;37.518;2022-08-19T05:31:51;99485.22;;;24.85;38.41
36404;BME280;22437;55.646;37.518;2022-08-19T05:34:23;99482.53;;;25.01;38.21
36404;BME280;22437;55.646;37.518;2022-08-19T05:36:55;99481.22;;;25.06;38.08
36404;BME280;22437;55.646;37.518;2022-08-19T05:39:31;99484.16;;;25.19;38.28
36404;BME280;22437;55.646;37.518;2022-08-19T05:42:04;99477.22;;;25.27;37.90
36404;BME280;22437;55.646;37.518;2022-08-19T05:44:40;99478.56;;;25.39;38.00
36404;BME280;22437;55.646;37.518;2022-08-19T05:47:13;99483.34;;;25.38;37.91
36404;BME280;22437;55.646;37.518;2022-08-19T05:49:49;99485.78;;;25.36;37.74
36404;BME280;22437;55.646;37.518;2022-08-19T05:52:20;99489.47;;;25.50;37.34
36404;BME280;22437;55.646;37.518;2022-08-19T05:54:53;99482.94;;;25.00;38.57
36404;BME280;22437;55.646;37.518;2022-08-19T05:57:24;99477.31;;;25.24;38.08
36404;BME280;22437;55.646;37.518;2022-08-19T05:59:59;99475.31;;;25.61;37.97
36404;BME280;22437;55.646;37.518;2022-08-19T06:02:39;99471.09;;;25.85;37.20
36404;BME280;22437;55.646;37.518;2022-08-19T06:05:10;99477.06;;;26.04;36.91
36404;BME280;22437;55.646;37.518;2022-08-19T06:07:40;99475.06;;;26.21;36.47
36404;BME280;22437;55.646;37.518;2022-08-19T06:10:10;99473.88;;;26.51;36.63
36404;BME280;22437;55.646;37.518;2022-08-19T06:12:41;99479.25;;;26.58;35.76
36404;BME280;22437;55.646;37.518;2022-08-19T06:15:14;99492.88;;;26.56;35.97
36404;BME280;22437;55.646;37.518;2022-08-19T06:17:44;99488.69;;;26.48;35.64
36404;BME280;22437;55.646;37.518;2022-08-19T06:20:14;99485.81;;;26.51;36.10
36404;BME280;22437;55.646;37.518;2022-08-19T06:23:07;99488.25;;;26.66;35.86
36404;BME280;22437;55.646;37.518;2022-08-19T06:25:44;99480.56;;;26.53;36.09
36404;BME280;22437;55.646;37.518;2022-08-19T06:28:13;99486.66;;;26.65;35.97
36404;BME280;22437;55.646;37.518;2022-08-19T06:30:47;99493.31;;;26.84;35.67
36404;BME280;22437;55.646;37.518;2022-08-19T06:33:16;99485.00;;;26.67;35.62
36404;BME280;22437;55.646;37.518;2022-08-19T06:35:47;99486.66;;;26.65;35.51
36404;BME280;22437;55.646;37.518;2022-08-19T06:38:17;99494.94;;;26.68;35.95
36404;BME280;22437;55.646;37.518;2022-08-19T06:40:51;99486.56;;;26.68;35.82
36404;BME280;22437;55.646;37.518;2022-08-19T06:43:34;99496.72;;;26.62;36.11
36404;BME280;22437;55.646;37.518;2022-08-19T06:46:17;99489.66;;;26.87;35.62
36404;BME280;22437;55.646;37.518;2022-08-19T06:48:48;99497.44;;;26.33;36.82
36404;BME280;22437;55.646;37.518;2022-08-19T06:51:18;99493.38;;;26.22;37.12
36404;BME280;22437;55.646;37.518;2022-08-19T06:53:51;99494.91;;;26.39;37.24
36404;BME280;22437;55.646;37.518;2022-08-19T06:56:24;99501.00;;;26.34;36.94
36404;BME280;22437;55.646;37.518;2022-08-19T06:59:02;99495.41;;;26.50;36.76
36404;BME280;22437;55.646;37.518;2022-08-19T07:01:36;99494.69;;;26.63;36.67
36404;BME280;22437;55.646;37.518;2022-08-19T07:04:09;99492.75;;;26.76;36.16
36404;BME280;22437;55.646;37.518;2022-08-19T07:06:39;99491.59;;;27.03;35.46
36404;BME280;22437;55.646;37.518;2022-08-19T07:09:13;99499.19;;;27.44;34.29
36404;BME280;22437;55.646;37.518;2022-08-19T07:11:49;99495.59;;;27.82;33.52
36404;BME280;22437;55.646;37.518;2022-08-19T07:14:23;99483.63;;;27.82;33.49
36404;BME280;22437;55.646;37.518;2022-08-19T07:16:56;99490.44;;;28.06;33.06
36404;BME280;22437;55.646;37.518;2022-08-19T07:19:26;99493.59;;;28.43;32.01
36404;BME280;22437;55.646;37.518;2022-08-19T07:21:57;99490.78;;;29.22;30.75
36404;BME280;22437;55.646;37.518;2022-08-19T07:24:30;99488.28;;;29.87;29.71
36404;BME280;22437;55.646;37.518;2022-08-19T07:27:03;99495.34;;;30.10;29.47
36404;BME280;22437;55.646;37.518;2022-08-19T07:29:42;99493.84;;;30.46;28.89
36404;BME280;22437;55.646;37.518;2022-08-19T07:32:24;99492.88;;;31.05;28.32
36404;BME280;22437;55.646;37.518;2022-08-19T07:34:55;99500.53;;;31.04;28.24
36404;BME280;22437;55.646;37.518;2022-08-19T07:37:25;99504.47;;;30.70;28.00
36404;BME280;22437;55.646;37.518;2022-08-19T07:40:00;99492.44;;;30.60;28.02
36404;BME280;22437;55.646;37.518;2022-08-19T07:42:30;99499.16;;;30.44;28.42
36404;BME280;22437;55.646;37.518;2022-08-19T07:45:00;99495.72;;;30.68;27.54
36404;BME280;22437;55.646;37.518;2022-08-19T07:47:32;99500.25;;;30.93;27.21
36404;BME280;22437;55.646;37.518;2022-08-19T07:50:19;99493.84;;;30.92;27.81
36404;BME280;22437;55.646;37.518;2022-08-19T07:52:49;99500.25;;;31.87;26.47
36404;BME280;22437;55.646;37.518;2022-08-19T07:55:23;99497.81;;;31.80;26.81
36404;BME280;22437;55.646;37.518;2022-08-19T07:58:14;99507.25;;;32.25;25.59
36404;BME280;22437;55.646;37.518;2022-08-19T08:00:46;99500.59;;;32.37;25.34
36404;BME280;22437;55.646;37.518;2022-08-19T08:03:20;99493.50;;;32.42;24.89
36404;BME280;22437;55.646;37.518;2022-08-19T08:06:14;99504.84;;;32.33;24.78
36404;BME280;22437;55.646;37.518;2022-08-19T08:09:04;99503.06;;;31.54;25.20
36404;BME280;22437;55.646;37.518;2022-08-19T08:12:00;99512.03;;;31.34;26.10
36404;BME280;22437;55.646;37.518;2022-08-19T08:14:53;99506.50;;;30.60;27.06
36404;BME280;22437;55.646;37.518;2022-08-19T08:17:26;99503.50;;;30.82;26.99
36404;BME280;22437;55.646;37.518;2022-08-19T08:20:19;99507.97;;;31.26;26.29
36404;BME280;22437;55.646;37.518;2022-08-19T08:22:49;99520.88;;;31.51;25.99
36404;BME280;22437;55.646;37.518;2022-08-19T08:25:37;99507.78;;;31.38;25.68
36404;BME280;22437;55.646;37.518;2022-08-19T08:28:07;99515.97;;;31.18;26.02
36404;BME280;22437;55.646;37.518;2022-08-19T08:30:45;99517.31;;;31.41;26.61
36404;BME280;22437;55.646;37.518;2022-08-19T08:33:19;99518.63;;;31.12;26.70
36404;BME280;22437;55.646;37.518;2022-08-19T08:36:04;99523.59;;;31.36;26.38
36404;BME280;22437;55.646;37.518;2022-08-19T08:38:37;99518.66;;;30.66;27.22
36404;BME280;22437;55.646;37.518;2022-08-19T08:41:16;99521.75;;;31.14;27.39
36404;BME280;22437;55.646;37.518;2022-08-19T08:43:51;99515.88;;;30.94;27.12
36404;BME280;22437;55.646;37.518;2022-08-19T08:46:26;99515.66;;;31.16;27.45
36404;BME280;22437;55.646;37.518;2022-08-19T08:49:04;99515.53;;;31.01;27.70
36404;BME280;22437;55.646;37.518;2022-08-19T08:51:40;99513.66;;;30.61;27.62
36404;BME280;22437;55.646;37.518;2022-08-19T08:54:19;99510.06;;;30.70;27.37
36404;BME280;22437;55.646;37.518;2022-08-19T08:56:51;99516.63;;;30.39;27.45
36404;BME280;22437;55.646;37.518;2022-08-19T08:59:28;99520.84;;;30.80;26.31
36404;BME280;22437;55.646;37.518;2022-08-19T09:02:00;99510.91;;;31.40;25.29
36404;BME280;22437;55.646;37.518;2022-08-19T09:04:31;99510.63;;;32.14;24.45
36404;BME280;22437;55.646;37.518;2022-08-19T09:07:14;99514.22;;;34.03;22.45
36404;BME280;22437;55.646;37.518;2022-08-19T09:10:08;99508.22;;;33.95;21.89
36404;BME280;22437;55.646;37.518;2022-08-19T09:12:45;99516.09;;;33.55;22.88
36404;BME280;22437;55.646;37.518;2022-08-19T09:15:30;99516.44;;;33.78;22.24
36404;BME280;22437;55.646;37.518;2022-08-19T09:18:04;99513.63;;;32.50;23.81
36404;BME280;22437;55.646;37.518;2022-08-19T09:20:42;99516.69;;;33.00;22.70
36404;BME280;22437;55.646;37.518;2022-08-19T09:23:14;99512.19;;;33.68;22.51
36404;BME280;22437;55.646;37.518;2022-08-19T09:25:44;99515.88;;;33.74;22.75
36404;BME280;22437;55.646;37.518;2022-08-19T09:28:14;99512.69;;;34.02;22.05
36404;BME280;22437;55.646;37.518;2022-08-19T09:30:54;99517.31;;;34.40;21.71
36404;BME280;22437;55.646;37.518;2022-08-19T09:33:24;99520.56;;;33.77;22.55
36404;BME280;22437;55.646;37.518;2022-08-19T09:36:07;99514.00;;;34.21;22.37
36404;BME280;22437;55.646;37.518;2022-08-19T09:38:40;99517.19;;;34.29;22.10
36404;BME280;22437;55.646;37.518;2022-08-19T09:41:14;99530.03;;;34.71;21.74
36404;BME280;22437;55.646;37.518;2022-08-19T09:43:50;99534.66;;;34.68;21.73
36404;BME280;22437;55.646;37.518;2022-08-19T09:46:23;99527.28;;;34.77;21.71
36404;BME280;22437;55.646;37.518;2022-08-19T09:48:54;99535.88;;;34.88;21.55
36404;BME280;22437;55.646;37.518;2022-08-19T09:51:34;99534.78;;;34.80;21.63
36404;BME280;22437;55.646;37.518;2022-08-19T09:54:07;99518.16;;;34.46;21.97
36404;BME280;22437;55.646;37.518;2022-08-19T09:56:38;99521.06;;;34.52;21.26
36404;BME280;22437;55.646;37.518;2022-08-19T09:59:10;99528.94;;;34.89;21.21
36404;BME280;22437;55.646;37.518;2022-08-19T10:01:41;99528.31;;;34.79;21.30
36404;BME280;22437;55.646;37.518;2022-08-19T10:04:13;99528.19;;;35.41;20.10
36404;BME280;22437;55.646;37.518;2022-08-19T10:06:49;99529.75;;;35.47;18.96
36404;BME280;22437;55.646;37.518;2022-08-19T10:09:23;99537.72;;;35.75;17.55
36404;BME280;22437;55.646;37.518;2022-08-19T10:12:01;99536.16;;;35.74;17.72
36404;BME280;22437;55.646;37.518;2022-08-19T10:14:33;99540.34;;;35.84;17.39
36404;BME280;22437;55.646;37.518;2022-08-19T10:17:06;99538.28;;;35.21;17.98
36404;BME280;22437;55.646;37.518;2022-08-19T10:19:49;99542.44;;;35.26;17.84
36404;BME280;22437;55.646;37.518;2022-08-19T10:22:23;99551.72;;;35.96;17.08
36404;BME280;22437;55.646;37.518;2022-08-19T10:24:54;99552.28;;;36.00;16.73
36404;BME280;22437;55.646;37.518;2022-08-19T10:27:25;99540.47;;;35.12;16.67
36404;BME280;22437;55.646;37.518;2022-08-19T10:29:59;99543.81;;;35.36;16.32
36404;BME280;22437;55.646;37.518;2022-08-19T10:32:29;99541.31;;;35.76;15.72
36404;BME280;22437;55.646;37.518;2022-08-19T10:35:04;99538.53;;;36.90;14.84
36404;BME280;22437;55.646;37.518;2022-08-19T10:37:37;99543.03;;;36.05;15.14
36404;BME280;22437;55.646;37.518;2022-08-19T10:40:35;99528.41;;;36.67;14.58
36404;BME280;22437;55.646;37.518;2022-08-19T10:43:06;99550.06;;;35.46;15.77
36404;BME280;22437;55.646;37.518;2022-08-19T10:45:36;99544.75;;;35.01;16.03
36404;BME280;22437;55.646;37.518;2022-08-19T10:48:23;99554.84;;;35.34;15.31
36404;BME280;22437;55.646;37.518;2022-08-19T10:50:58;99552.13;;;34.93;15.43
36404;BME280;22437;55.646;37.518;2022-08-19T10:53:51;99550.44;;;34.81;15.80
36404;BME280;22437;55.646;37.518;2022-08-19T10:56:23;99549.28;;;35.45;14.82
36404;BME280;22437;55.646;37.518;2022-08-19T10:59:16;99557.00;;;35.77;14.33
36404;BME280;22437;55.646;37.518;2022-08-19T11:01:47;99568.72;;;35.96;14.19
36404;BME280;22437;55.646;37.518;2022-08-19T11:04:24;99554.69;;;35.43;14.45
36404;BME280;22437;55.646;37.518;2022-08-19T11:06:56;99549.75;;;35.38;14.14
36404;BME280;22437;55.646;37.518;2022-08-19T11:09:30;99554.72;;;34.97;14.49
36404;BME280;22437;55.646;37.518;2022-08-19T11:12:03;99535.78;;;35.03;14.97
36404;BME280;22437;55.646;37.518;2022-08-19T11:14:32;99542.84;;;34.93;14.78
36404;BME280;22437;55.646;37.518;2022-08-19T11:17:04;99538.28;;;36.28;13.64
36404;BME280;22437;55.646;37.518;2022-08-19T11:19:34;99541.06;;;36.66;13.32
36404;BME280;22437;55.646;37.518;2022-08-19T11:22:07;99535.97;;;36.26;14.09
36404;BME280;22437;55.646;37.518;2022-08-19T11:24:43;99538.38;;;35.64;14.13
36404;BME280;22437;55.646;37.518;2022-08-19T11:27:15;99540.31;;;35.47;14.55
36404;BME280;22437;55.646;37.518;2022-08-19T11:29:45;99528.00;;;34.98;15.08
36404;BME280;22437;55.646;37.518;2022-08-19T11:32:15;99529.38;;;35.34;14.98
36404;BME280;22437;55.646;37.518;2022-08-19T11:34:45;99530.75;;;34.45;15.24
36404;BME280;22437;55.646;37.518;2022-08-19T11:37:16;99531.94;;;34.80;15.61
36404;BME280;22437;55.646;37.518;2022-08-19T11:39:48;99541.22;;;35.06;15.36
36404;BME280;22437;55.646;37.518;2022-08-19T11:42:22;99540.72;;;35.66;14.96
36404;BME280;22437;55.646;37.518;2022-08-19T11:45:11;99542.78;;;36.03;14.45
36404;BME280;22437;55.646;37.518;2022-08-19T11:47:42;99547.75;;;35.76;14.90
36404;BME280;22437;55.646;37.518;2022-08-19T11:50:12;99542.91;;;35.51;14.27
36404;BME280;22437;55.646;37.518;2022-08-19T11:52:42;99544.59;;;35.10;15.29
36404;BME280;22437;55.646;37.518;2022-08-19T11:55:13;99542.75;;;35.07;15.39
36404;BME280;22437;55.646;37.518;2022-08-19T11:57:46;99540.34;;;34.74;15.29
36404;BME280;22437;55.646;37.518;2022-08-19T12:00:19;99543.75;;;34.02;16.94
36404;BME280;22437;55.646;37.518;2022-08-19T12:02:50;99534.78;;;33.53;16.75
36404;BME280;22437;55.646;37.518;2022-08-19T12:05:21;99536.25;;;33.33;17.10
36404;BME280;22437;55.646;37.518;2022-08-19T12:07:52;99526.31;;;33.53;17.19
36404;BME280;22437;55.646;37.518;2022-08-19T12:10:24;99527.25;;;33.80;17.37
36404;BME280;22437;55.646;37.518;2022-08-19T12:12:58;99537.81;;;34.00;17.04
36404;BME280;22437;55.646;37.518;2022-08-19T12:15:28;99523.38;;;33.62;17.97
36404;BME280;22437;55.646;37.518;2022-08-19T12:18:05;99527.59;;;33.52;17.90
36404;BME280;22437;55.646;37.518;2022-08-19T12:20:37;99526.38;;;32.99;19.12
36404;BME280;22437;55.646;37.518;2022-08-19T12:23:09;99526.06;;;32.43;19.84
36404;BME280;22437;55.646;37.518;2022-08-19T12:25:45;99527.31;;;32.42;20.08
36404;BME280;22437;55.646;37.518;2022-08-19T12:28:24;99523.06;;;32.23;20.80
36404;BME280;22437;55.646;37.518;2022-08-19T12:30:56;99524.00;;;31.95;21.47
36404;BME280;22437;55.646;37.518;2022-08-19T12:33:27;99527.44;;;31.90;21.51
36404;BME280;22437;55.646;37.518;2022-08-19T12:36:01;99525.78;;;31.84;21.20
36404;BME280;22437;55.646;37.518;2022-08-19T12:38:32;99533.38;;;31.59;21.71
36404;BME280;22437;55.646;37.518;2022-08-19T12:41:02;99533.38;;;33.04;20.24
36404;BME280;22437;55.646;37.518;2022-08-19T12:43:38;99518.91;;;32.33;21.25
36404;BME280;22437;55.646;37.518;2022-08-19T12:46:10;99516.78;;;31.70;21.78
36404;BME280;22437;55.646;37.518;2022-08-19T12:48:44;99518.63;;;31.12;22.72
36404;BME280;22437;55.646;37.518;2022-08-19T12:51:21;99521.63;;;30.81;23.33
36404;BME280;22437;55.646;37.518;2022-08-19T12:53:51;99531.75;;;30.51;24.13
36404;BME280;22437;55.646;37.518;2022-08-19T12:56:22;99525.25;;;30.13;24.23
36404;BME280;22437;55.646;37.518;2022-08-19T12:58:56;99530.41;;;30.15;24.49
36404;BME280;22437;55.646;37.518;2022-08-19T13:01:32;99532.84;;;29.85;24.50
36404;BME280;22437;55.646;37.518;2022-08-19T13:04:03;99530.91;;;29.73;24.67
36404;BME280;22437;55.646;37.518;2022-08-19T13:06:35;99534.34;;;29.45;24.99
36404;BME280;22437;55.646;37.518;2022-08-19T13:09:08;99539.19;;;29.76;24.83
36404;BME280;22437;55.646;37.518;2022-08-19T13:11:39;99521.78;;;29.59;24.76
36404;BME280;22437;55.646;37.518;2022-08-19T13:14:13;99528.28;;;29.78;24.81
36404;BME280;22437;55.646;37.518;2022-08-19T13:16:43;99533.50;;;29.98;24.96
36404;BME280;22437;55.646;37.518;2022-08-19T13:19:15;99542.19;;;29.82;24.94
36404;BME280;22437;55.646;37.518;2022-08-19T13:21:50;99533.34;;;29.93;25.06
36404;BME280;22437;55.646;37.518;2022-08-19T13:24:27;99542.13;;;29.73;25.08